sensor_id;sensor_type;location;lat;lon;timestamp;temperature;humidity
52615;DHT22;38508;53.158;6.614;2023-02-15T00:01:09;5.10;99.90
52615;DHT22;38508;53.158;6.614;2023-02-15T00:03:35;5.10;99.90
52615;DHT22;38508;53.158;6.614;2023-02-15T00:06:01;5.00;99.90
52615;DHT22;38508;53.158;6.614;2023-02-15T00:08:27;5.00;99.90
52615;DHT22;38508;53.158;6.614;2023-02-15T00:10:53;5.10;99.90
52615;DHT22;38508;53.158;6.614;2023-02-15T00:13:19;5.00;99.90
52615;DHT22;38508;53.158;6.614;2023-02-15T00:15:44;5.00;99.90
52615;DHT22;38508;53.158;6.614;2023-02-15T00:18:10;5.00;99.90
52615;DHT22;38508;53.158;6.614;2023-02-15T00:20:35;4.90;99.90
52615;DHT22;38508;53.158;6.614;2023-02-15T00:23:01;5.00;99.90
52615;DHT22;38508;53.158;6.614;2023-02-15T00:25:27;5.00;99.90
52615;DHT22;38508;53.158;6.614;2023-02-15T00:27:52;5.00;99.90
52615;DHT22;38508;53.158;6.614;2023-02-15T00:30:18;4.90;99.90
52615;DHT22;38508;53.158;6.614;2023-02-15T00:32:44;4.90;99.90
52615;DHT22;38508;53.158;6.614;2023-02-15T00:35:12;4.90;99.90
52615;DHT22;38508;53.158;6.614;2023-02-15T00:37:38;4.90;99.90
52615;DHT22;38508;53.158;6.614;2023-02-15T00:40:04;4.80;99.90
52615;DHT22;38508;53.158;6.614;2023-02-15T00:42:30;4.70;99.90
52615;DHT22;38508;53.158;6.614;2023-02-15T00:44:55;4.70;99.90
52615;DHT22;38508;53.158;6.614;2023-02-15T00:47:21;4.70;99.90
52615;DHT22;38508;53.158;6.614;2023-02-15T00:49:46;4.60;99.90
52615;DHT22;38508;53.158;6.614;2023-02-15T00:52:12;4.50;99.90
52615;DHT22;38508;53.158;6.614;2023-02-15T00:54:38;4.60;99.90
52615;DHT22;38508;53.158;6.614;2023-02-15T00:57:04;4.60;99.90
52615;DHT22;38508;53.158;6.614;2023-02-15T00:59:29;4.50;99.90
52615;DHT22;38508;53.158;6.614;2023-02-15T01:01:55;4.50;99.90
52615;DHT22;38508;53.158;6.614;2023-02-15T01:04:21;4.50;99.90
52615;DHT22;38508;53.158;6.614;2023-02-15T01:06:46;4.50;99.90
52615;DHT22;38508;53.158;6.614;2023-02-15T01:09:12;4.50;99.90
52615;DHT22;38508;53.158;6.614;2023-02-15T01:11:39;4.40;99.90
52615;DHT22;38508;53.158;6.614;2023-02-15T01:14:04;4.40;99.90
52615;DHT22;38508;53.158;6.614;2023-02-15T01:16:31;4.40;99.90
52615;DHT22;38508;53.158;6.614;2023-02-15T01:18:56;4.50;99.90
52615;DHT22;38508;53.158;6.614;2023-02-15T01:21:24;4.40;99.90
52615;DHT22;38508;53.158;6.614;2023-02-15T01:23:50;4.40;99.90
52615;DHT22;38508;53.158;6.614;2023-02-15T01:26:16;4.40;99.90
52615;DHT22;38508;53.158;6.614;2023-02-15T01:28:42;4.50;99.90
52615;DHT22;38508;53.158;6.614;2023-02-15T01:31:10;4.40;99.90
52615;DHT22;38508;53.158;6.614;2023-02-15T01:33:37;4.40;99.90
52615;DHT22;38508;53.158;6.614;2023-02-15T01:36:03;4.40;99.90
52615;DHT22;38508;53.158;6.614;2023-02-15T01:38:29;4.30;99.90
52615;DHT22;38508;53.158;6.614;2023-02-15T01:40:55;4.30;99.90
52615;DHT22;38508;53.158;6.614;2023-02-15T01:43:42;4.30;99.90
52615;DHT22;38508;53.158;6.614;2023-02-15T01:46:09;4.30;99.90
52615;DHT22;38508;53.158;6.614;2023-02-15T01:48:46;4.30;99.90
52615;DHT22;38508;53.158;6.614;2023-02-15T01:51:12;4.20;99.90
52615;DHT22;38508;53.158;6.614;2023-02-15T01:53:54;4.30;99.90
52615;DHT22;38508;53.158;6.614;2023-02-15T01:56:25;4.40;99.90
52615;DHT22;38508;53.158;6.614;2023-02-15T01:58:54;4.50;99.90
52615;DHT22;38508;53.158;6.614;2023-02-15T02:01:24;4.40;99.90
52615;DHT22;38508;53.158;6.614;2023-02-15T02:04:02;4.40;99.90
52615;DHT22;38508;53.158;6.614;2023-02-15T02:06:31;4.40;99.90
52615;DHT22;38508;53.158;6.614;2023-02-15T02:08:58;4.30;99.90
52615;DHT22;38508;53.158;6.614;2023-02-15T02:11:24;4.30;99.90
52615;DHT22;38508;53.158;6.614;2023-02-15T02:13:51;4.30;99.90
52615;DHT22;38508;53.158;6.614;2023-02-15T02:16:37;4.20;99.90
52615;DHT22;38508;53.158;6.614;2023-02-15T02:39:17;4.10;99.90
52615;DHT22;38508;53.158;6.614;2023-02-15T02:44:35;4.10;99.90
52615;DHT22;38508;53.158;6.614;2023-02-15T02:47:32;4.20;99.90
52615;DHT22;38508;53.158;6.614;2023-02-15T02:50:02;4.10;99.90
52615;DHT22;38508;53.158;6.614;2023-02-15T02:55:05;4.10;99.90
52615;DHT22;38508;53.158;6.614;2023-02-15T02:57:32;4.10;99.90
52615;DHT22;38508;53.158;6.614;2023-02-15T03:00:02;4.00;99.90
52615;DHT22;38508;53.158;6.614;2023-02-15T03:02:32;4.00;99.90
52615;DHT22;38508;53.158;6.614;2023-02-15T03:05:02;4.10;99.90
52615;DHT22;38508;53.158;6.614;2023-02-15T03:07:31;4.10;99.90
52615;DHT22;38508;53.158;6.614;2023-02-15T03:10:01;4.00;99.90
52615;DHT22;38508;53.158;6.614;2023-02-15T03:12:38;3.90;99.90
52615;DHT22;38508;53.158;6.614;2023-02-15T03:15:13;3.80;99.90
52615;DHT22;38508;53.158;6.614;2023-02-15T03:17:45;3.80;99.90
52615;DHT22;38508;53.158;6.614;2023-02-15T03:20:29;3.90;99.90
52615;DHT22;38508;53.158;6.614;2023-02-15T03:22:59;3.90;99.90
52615;DHT22;38508;53.158;6.614;2023-02-15T03:25:44;3.80;99.90
52615;DHT22;38508;53.158;6.614;2023-02-15T03:28:19;3.80;99.90
52615;DHT22;38508;53.158;6.614;2023-02-15T03:30:49;3.80;99.90
52615;DHT22;38508;53.158;6.614;2023-02-15T03:33:17;3.70;99.90
52615;DHT22;38508;53.158;6.614;2023-02-15T03:35:49;3.60;99.90
52615;DHT22;38508;53.158;6.614;2023-02-15T03:38:21;3.50;99.90
52615;DHT22;38508;53.158;6.614;2023-02-15T03:40:50;3.60;99.90
52615;DHT22;38508;53.158;6.614;2023-02-15T03:43:43;3.50;99.90
52615;DHT22;38508;53.158;6.614;2023-02-15T03:49:39;3.70;99.90
52615;DHT22;38508;53.158;6.614;2023-02-15T03:52:07;3.60;99.90
52615;DHT22;38508;53.158;6.614;2023-02-15T03:54:35;3.40;99.90
52615;DHT22;38508;53.158;6.614;2023-02-15T03:57:19;3.30;99.90
52615;DHT22;38508;53.158;6.614;2023-02-15T04:05:41;3.40;99.90
52615;DHT22;38508;53.158;6.614;2023-02-15T04:08:08;3.50;99.90
52615;DHT22;38508;53.158;6.614;2023-02-15T04:10:34;3.50;99.90
52615;DHT22;38508;53.158;6.614;2023-02-15T04:13:23;3.60;99.90
52615;DHT22;38508;53.158;6.614;2023-02-15T04:15:49;3.70;99.90
52615;DHT22;38508;53.158;6.614;2023-02-15T04:18:48;3.70;99.90
52615;DHT22;38508;53.158;6.614;2023-02-15T04:21:33;3.80;99.90
52615;DHT22;38508;53.158;6.614;2023-02-15T04:24:17;3.70;99.90
52615;DHT22;38508;53.158;6.614;2023-02-15T04:27:03;3.60;99.90
52615;DHT22;38508;53.158;6.614;2023-02-15T04:29:30;3.60;99.90
52615;DHT22;38508;53.158;6.614;2023-02-15T04:31:58;3.60;99.90
52615;DHT22;38508;53.158;6.614;2023-02-15T04:34:24;3.60;99.90
52615;DHT22;38508;53.158;6.614;2023-02-15T04:36:51;3.60;99.90
52615;DHT22;38508;53.158;6.614;2023-02-15T04:39:17;3.70;99.90
52615;DHT22;38508;53.158;6.614;2023-02-15T04:41:45;3.70;99.90
52615;DHT22;38508;53.158;6.614;2023-02-15T04:44:11;3.70;99.90
52615;DHT22;38508;53.158;6.614;2023-02-15T04:46:37;3.70;99.90
52615;DHT22;38508;53.158;6.614;2023-02-15T04:49:03;3.50;99.90
52615;DHT22;38508;53.158;6.614;2023-02-15T04:51:28;3.50;99.90
52615;DHT22;38508;53.158;6.614;2023-02-15T04:53:54;3.20;99.90
52615;DHT22;38508;53.158;6.614;2023-02-15T04:56:20;3.10;99.90
52615;DHT22;38508;53.158;6.614;2023-02-15T04:58:46;3.00;99.90
52615;DHT22;38508;53.158;6.614;2023-02-15T05:01:12;2.80;99.90
52615;DHT22;38508;53.158;6.614;2023-02-15T05:03:38;2.80;99.90
52615;DHT22;38508;53.158;6.614;2023-02-15T05:06:04;2.80;99.90
52615;DHT22;38508;53.158;6.614;2023-02-15T05:08:30;2.80;99.90
52615;DHT22;38508;53.158;6.614;2023-02-15T05:10:56;2.90;99.90
52615;DHT22;38508;53.158;6.614;2023-02-15T05:13:22;2.90;99.90
52615;DHT22;38508;53.158;6.614;2023-02-15T05:15:52;3.10;99.90
52615;DHT22;38508;53.158;6.614;2023-02-15T05:18:19;3.20;99.90
52615;DHT22;38508;53.158;6.614;2023-02-15T05:20:45;3.30;99.90
52615;DHT22;38508;53.158;6.614;2023-02-15T05:23:11;3.30;99.90
52615;DHT22;38508;53.158;6.614;2023-02-15T05:25:37;3.40;99.90
52615;DHT22;38508;53.158;6.614;2023-02-15T05:28:24;3.30;99.90
52615;DHT22;38508;53.158;6.614;2023-02-15T05:33:29;3.20;99.90
52615;DHT22;38508;53.158;6.614;2023-02-15T05:35:54;3.20;99.90
52615;DHT22;38508;53.158;6.614;2023-02-15T05:38:20;3.10;99.90
52615;DHT22;38508;53.158;6.614;2023-02-15T05:40:46;3.10;99.90
52615;DHT22;38508;53.158;6.614;2023-02-15T05:43:11;3.10;99.90
52615;DHT22;38508;53.158;6.614;2023-02-15T05:45:37;3.10;99.90
52615;DHT22;38508;53.158;6.614;2023-02-15T05:48:03;3.10;99.90
52615;DHT22;38508;53.158;6.614;2023-02-15T05:50:29;3.10;99.90
52615;DHT22;38508;53.158;6.614;2023-02-15T05:52:54;3.10;99.90
52615;DHT22;38508;53.158;6.614;2023-02-15T05:55:20;3.10;99.90
52615;DHT22;38508;53.158;6.614;2023-02-15T05:57:46;3.00;99.90
52615;DHT22;38508;53.158;6.614;2023-02-15T06:00:12;3.10;99.90
52615;DHT22;38508;53.158;6.614;2023-02-15T06:02:39;3.20;99.90
52615;DHT22;38508;53.158;6.614;2023-02-15T06:05:06;3.30;99.90
52615;DHT22;38508;53.158;6.614;2023-02-15T06:07:32;3.30;99.90
52615;DHT22;38508;53.158;6.614;2023-02-15T06:09:57;3.40;99.90
52615;DHT22;38508;53.158;6.614;2023-02-15T06:12:23;3.50;99.90
52615;DHT22;38508;53.158;6.614;2023-02-15T06:14:49;3.60;99.90
52615;DHT22;38508;53.158;6.614;2023-02-15T06:17:15;3.70;99.90
52615;DHT22;38508;53.158;6.614;2023-02-15T06:19:42;3.80;99.90
52615;DHT22;38508;53.158;6.614;2023-02-15T06:22:08;3.90;99.90
52615;DHT22;38508;53.158;6.614;2023-02-15T06:24:34;3.90;99.90
52615;DHT22;38508;53.158;6.614;2023-02-15T06:27:00;3.90;99.90
52615;DHT22;38508;53.158;6.614;2023-02-15T06:29:25;4.00;99.90
52615;DHT22;38508;53.158;6.614;2023-02-15T06:31:51;4.00;99.90
52615;DHT22;38508;53.158;6.614;2023-02-15T06:34:17;4.00;99.90
52615;DHT22;38508;53.158;6.614;2023-02-15T06:36:42;4.00;99.90
52615;DHT22;38508;53.158;6.614;2023-02-15T06:39:08;4.10;99.90
52615;DHT22;38508;53.158;6.614;2023-02-15T06:41:34;4.20;99.90
52615;DHT22;38508;53.158;6.614;2023-02-15T06:43:59;4.20;99.90
52615;DHT22;38508;53.158;6.614;2023-02-15T06:46:25;4.30;99.90
52615;DHT22;38508;53.158;6.614;2023-02-15T06:48:51;4.30;99.90
52615;DHT22;38508;53.158;6.614;2023-02-15T06:51:17;4.20;99.90
52615;DHT22;38508;53.158;6.614;2023-02-15T06:53:42;4.20;99.90
52615;DHT22;38508;53.158;6.614;2023-02-15T06:56:09;4.10;99.90
52615;DHT22;38508;53.158;6.614;2023-02-15T06:58:36;4.10;99.90
52615;DHT22;38508;53.158;6.614;2023-02-15T07:01:02;4.10;99.90
52615;DHT22;38508;53.158;6.614;2023-02-15T07:03:28;4.20;99.90
52615;DHT22;38508;53.158;6.614;2023-02-15T07:05:59;4.20;99.90
52615;DHT22;38508;53.158;6.614;2023-02-15T07:08:26;4.20;99.90
52615;DHT22;38508;53.158;6.614;2023-02-15T07:10:52;4.20;99.90
52615;DHT22;38508;53.158;6.614;2023-02-15T07:13:19;4.30;99.90
52615;DHT22;38508;53.158;6.614;2023-02-15T07:15:46;4.40;99.90
52615;DHT22;38508;53.158;6.614;2023-02-15T07:18:12;4.30;99.90
52615;DHT22;38508;53.158;6.614;2023-02-15T07:20:38;4.30;99.90
52615;DHT22;38508;53.158;6.614;2023-02-15T07:23:04;4.30;99.90
52615;DHT22;38508;53.158;6.614;2023-02-15T07:25:30;4.30;99.90
52615;DHT22;38508;53.158;6.614;2023-02-15T07:28:00;4.30;99.90
52615;DHT22;38508;53.158;6.614;2023-02-15T07:30:27;4.40;99.90
52615;DHT22;38508;53.158;6.614;2023-02-15T07:32:57;4.40;99.90
52615;DHT22;38508;53.158;6.614;2023-02-15T07:35:52;4.60;99.90
52615;DHT22;38508;53.158;6.614;2023-02-15T07:38:18;4.60;99.90
52615;DHT22;38508;53.158;6.614;2023-02-15T07:40:44;4.60;99.90
52615;DHT22;38508;53.158;6.614;2023-02-15T07:43:10;4.60;99.90
52615;DHT22;38508;53.158;6.614;2023-02-15T07:45:36;4.50;99.90
52615;DHT22;38508;53.158;6.614;2023-02-15T07:48:03;4.50;99.90
52615;DHT22;38508;53.158;6.614;2023-02-15T07:50:29;4.40;99.90
52615;DHT22;38508;53.158;6.614;2023-02-15T07:52:55;4.50;99.90
52615;DHT22;38508;53.158;6.614;2023-02-15T07:55:20;4.60;99.90
52615;DHT22;38508;53.158;6.614;2023-02-15T07:57:48;4.70;99.90
52615;DHT22;38508;53.158;6.614;2023-02-15T08:00:16;4.80;99.90
52615;DHT22;38508;53.158;6.614;2023-02-15T08:02:47;4.90;99.90
52615;DHT22;38508;53.158;6.614;2023-02-15T08:05:12;4.90;99.90
52615;DHT22;38508;53.158;6.614;2023-02-15T08:07:38;5.00;99.90
52615;DHT22;38508;53.158;6.614;2023-02-15T08:10:05;5.00;99.90
52615;DHT22;38508;53.158;6.614;2023-02-15T08:12:31;5.00;99.90
52615;DHT22;38508;53.158;6.614;2023-02-15T08:14:57;4.90;99.90
52615;DHT22;38508;53.158;6.614;2023-02-15T08:17:22;5.00;99.90
52615;DHT22;38508;53.158;6.614;2023-02-15T08:19:48;5.10;99.90
52615;DHT22;38508;53.158;6.614;2023-02-15T08:22:14;5.20;99.90
52615;DHT22;38508;53.158;6.614;2023-02-15T08:24:40;5.20;99.90
52615;DHT22;38508;53.158;6.614;2023-02-15T08:27:08;5.30;99.90
52615;DHT22;38508;53.158;6.614;2023-02-15T08:29:36;5.30;99.90
52615;DHT22;38508;53.158;6.614;2023-02-15T08:32:05;5.30;99.90
52615;DHT22;38508;53.158;6.614;2023-02-15T08:34:34;5.30;99.90
52615;DHT22;38508;53.158;6.614;2023-02-15T08:37:00;5.30;99.90
52615;DHT22;38508;53.158;6.614;2023-02-15T08:39:26;5.30;99.90
52615;DHT22;38508;53.158;6.614;2023-02-15T08:41:52;5.30;99.90
52615;DHT22;38508;53.158;6.614;2023-02-15T08:44:19;5.20;99.90
52615;DHT22;38508;53.158;6.614;2023-02-15T08:46:47;5.10;99.90
52615;DHT22;38508;53.158;6.614;2023-02-15T08:49:17;5.00;99.90
52615;DHT22;38508;53.158;6.614;2023-02-15T08:51:44;5.00;99.90
52615;DHT22;38508;53.158;6.614;2023-02-15T08:54:13;5.10;99.90
52615;DHT22;38508;53.158;6.614;2023-02-15T08:56:41;5.00;99.90
52615;DHT22;38508;53.158;6.614;2023-02-15T08:59:12;4.90;99.90
52615;DHT22;38508;53.158;6.614;2023-02-15T09:01:38;5.10;99.90
52615;DHT22;38508;53.158;6.614;2023-02-15T09:04:06;5.20;99.90
52615;DHT22;38508;53.158;6.614;2023-02-15T09:06:39;5.20;99.90
52615;DHT22;38508;53.158;6.614;2023-02-15T09:09:05;5.30;99.90
52615;DHT22;38508;53.158;6.614;2023-02-15T09:11:37;5.40;99.90
52615;DHT22;38508;53.158;6.614;2023-02-15T09:14:05;5.20;99.90
52615;DHT22;38508;53.158;6.614;2023-02-15T09:16:35;5.30;99.90
52615;DHT22;38508;53.158;6.614;2023-02-15T09:19:02;5.30;99.90
52615;DHT22;38508;53.158;6.614;2023-02-15T09:21:30;5.20;99.90
52615;DHT22;38508;53.158;6.614;2023-02-15T09:23:59;5.30;99.90
52615;DHT22;38508;53.158;6.614;2023-02-15T09:26:26;5.30;99.90
52615;DHT22;38508;53.158;6.614;2023-02-15T09:28:55;5.50;99.90
52615;DHT22;38508;53.158;6.614;2023-02-15T09:31:23;5.70;99.90
52615;DHT22;38508;53.158;6.614;2023-02-15T09:33:50;5.70;99.90
52615;DHT22;38508;53.158;6.614;2023-02-15T09:36:22;5.80;99.90
52615;DHT22;38508;53.158;6.614;2023-02-15T09:38:56;6.00;99.90
52615;DHT22;38508;53.158;6.614;2023-02-15T09:53:27;6.20;99.90
52615;DHT22;38508;53.158;6.614;2023-02-15T10:12:56;7.00;99.90
52615;DHT22;38508;53.158;6.614;2023-02-15T10:24:24;7.90;99.90
52615;DHT22;38508;53.158;6.614;2023-02-15T10:26:56;8.00;99.90
52615;DHT22;38508;53.158;6.614;2023-02-15T10:29:36;8.10;99.90
52615;DHT22;38508;53.158;6.614;2023-02-15T10:32:24;8.20;99.90
52615;DHT22;38508;53.158;6.614;2023-02-15T10:37:59;8.40;99.90
52615;DHT22;38508;53.158;6.614;2023-02-15T10:46:30;8.60;99.90
52615;DHT22;38508;53.158;6.614;2023-02-15T10:49:21;8.80;99.90
52615;DHT22;38508;53.158;6.614;2023-02-15T10:54:32;9.30;99.90
52615;DHT22;38508;53.158;6.614;2023-02-15T10:57:14;9.30;99.90
52615;DHT22;38508;53.158;6.614;2023-02-15T11:07:47;10.00;99.90
52615;DHT22;38508;53.158;6.614;2023-02-15T11:12:41;10.10;99.90
52615;DHT22;38508;53.158;6.614;2023-02-15T11:15:34;10.20;99.90
52615;DHT22;38508;53.158;6.614;2023-02-15T11:18:14;10.40;99.90
52615;DHT22;38508;53.158;6.614;2023-02-15T11:21:22;10.40;99.90
52615;DHT22;38508;53.158;6.614;2023-02-15T11:23:48;10.70;99.90
52615;DHT22;38508;53.158;6.614;2023-02-15T11:27:04;10.70;99.90
52615;DHT22;38508;53.158;6.614;2023-02-15T11:29:18;11.10;99.90
52615;DHT22;38508;53.158;6.614;2023-02-15T11:31:53;11.50;99.90
52615;DHT22;38508;53.158;6.614;2023-02-15T11:34:33;11.70;99.90
52615;DHT22;38508;53.158;6.614;2023-02-15T11:37:05;11.70;99.90
52615;DHT22;38508;53.158;6.614;2023-02-15T11:39:33;11.70;99.90
52615;DHT22;38508;53.158;6.614;2023-02-15T11:42:04;11.80;99.90
52615;DHT22;38508;53.158;6.614;2023-02-15T11:44:35;12.10;99.90
52615;DHT22;38508;53.158;6.614;2023-02-15T11:47:02;12.20;99.90
52615;DHT22;38508;53.158;6.614;2023-02-15T11:49:35;12.10;99.90
52615;DHT22;38508;53.158;6.614;2023-02-15T11:52:02;12.20;99.90
52615;DHT22;38508;53.158;6.614;2023-02-15T11:54:36;12.30;99.90
52615;DHT22;38508;53.158;6.614;2023-02-15T11:57:15;12.70;99.90
52615;DHT22;38508;53.158;6.614;2023-02-15T12:00:00;12.50;99.90
52615;DHT22;38508;53.158;6.614;2023-02-15T12:02:27;12.60;99.90
52615;DHT22;38508;53.158;6.614;2023-02-15T12:05:05;12.70;99.90
52615;DHT22;38508;53.158;6.614;2023-02-15T12:07:41;12.80;99.90
52615;DHT22;38508;53.158;6.614;2023-02-15T12:10:26;13.30;99.90
52615;DHT22;38508;53.158;6.614;2023-02-15T12:13:11;14.10;99.90
52615;DHT22;38508;53.158;6.614;2023-02-15T12:15:44;14.40;99.90
52615;DHT22;38508;53.158;6.614;2023-02-15T12:21:12;15.10;99.90
52615;DHT22;38508;53.158;6.614;2023-02-15T12:23:48;15.50;99.90
52615;DHT22;38508;53.158;6.614;2023-02-15T12:26:14;15.60;99.90
52615;DHT22;38508;53.158;6.614;2023-02-15T12:28:49;15.40;99.40
52615;DHT22;38508;53.158;6.614;2023-02-15T12:31:36;15.30;99.20
52615;DHT22;38508;53.158;6.614;2023-02-15T12:36:52;15.10;99.90
52615;DHT22;38508;53.158;6.614;2023-02-15T12:39:32;15.30;99.90
52615;DHT22;38508;53.158;6.614;2023-02-15T12:42:04;15.40;99.90
52615;DHT22;38508;53.158;6.614;2023-02-15T12:44:34;15.40;99.70
52615;DHT22;38508;53.158;6.614;2023-02-15T12:49:43;16.00;99.80
52615;DHT22;38508;53.158;6.614;2023-02-15T12:54:44;16.20;99.50
52615;DHT22;38508;53.158;6.614;2023-02-15T13:00:06;16.50;99.60
52615;DHT22;38508;53.158;6.614;2023-02-15T13:02:48;16.30;99.10
52615;DHT22;38508;53.158;6.614;2023-02-15T13:08:12;15.30;99.30
52615;DHT22;38508;53.158;6.614;2023-02-15T13:10:40;15.40;99.80
52615;DHT22;38508;53.158;6.614;2023-02-15T13:13:18;15.40;99.90
52615;DHT22;38508;53.158;6.614;2023-02-15T13:15:49;15.50;99.60
52615;DHT22;38508;53.158;6.614;2023-02-15T13:18:19;15.70;99.90
52615;DHT22;38508;53.158;6.614;2023-02-15T13:20:49;15.70;99.40
52615;DHT22;38508;53.158;6.614;2023-02-15T13:23:27;15.50;99.60
52615;DHT22;38508;53.158;6.614;2023-02-15T13:25:55;15.20;99.60
52615;DHT22;38508;53.158;6.614;2023-02-15T13:28:25;14.40;99.90
52615;DHT22;38508;53.158;6.614;2023-02-15T13:30:53;14.20;99.90
52615;DHT22;38508;53.158;6.614;2023-02-15T13:33:36;14.10;99.90
52615;DHT22;38508;53.158;6.614;2023-02-15T13:41:32;14.30;99.90
52615;DHT22;38508;53.158;6.614;2023-02-15T13:50:08;14.50;99.90
52615;DHT22;38508;53.158;6.614;2023-02-15T13:52:24;14.10;99.90
52615;DHT22;38508;53.158;6.614;2023-02-15T14:11:57;13.40;99.90
52615;DHT22;38508;53.158;6.614;2023-02-15T14:29:16;13.40;99.90
52615;DHT22;38508;53.158;6.614;2023-02-15T14:31:48;13.60;99.90
52615;DHT22;38508;53.158;6.614;2023-02-15T14:34:23;13.80;99.90
52615;DHT22;38508;53.158;6.614;2023-02-15T14:36:51;13.90;99.90
52615;DHT22;38508;53.158;6.614;2023-02-15T14:44:41;13.90;99.90
52615;DHT22;38508;53.158;6.614;2023-02-15T14:47:18;13.90;99.90
52615;DHT22;38508;53.158;6.614;2023-02-15T14:49:44;14.10;99.90
52615;DHT22;38508;53.158;6.614;2023-02-15T14:52:11;14.10;99.90
52615;DHT22;38508;53.158;6.614;2023-02-15T14:59:45;13.80;99.90
52615;DHT22;38508;53.158;6.614;2023-02-15T15:02:29;13.80;99.90
52615;DHT22;38508;53.158;6.614;2023-02-15T15:05:10;13.60;99.90
52615;DHT22;38508;53.158;6.614;2023-02-15T15:07:47;13.60;99.90
52615;DHT22;38508;53.158;6.614;2023-02-15T15:12:47;13.30;99.90
52615;DHT22;38508;53.158;6.614;2023-02-15T15:18:07;13.10;99.90
52615;DHT22;38508;53.158;6.614;2023-02-15T15:20:46;13.10;99.90
52615;DHT22;38508;53.158;6.614;2023-02-15T15:42:32;12.70;99.90
52615;DHT22;38508;53.158;6.614;2023-02-15T15:48:28;12.60;99.90
52615;DHT22;38508;53.158;6.614;2023-02-15T15:51:01;12.60;99.90
52615;DHT22;38508;53.158;6.614;2023-02-15T15:53:29;12.60;99.90
52615;DHT22;38508;53.158;6.614;2023-02-15T15:56:06;12.30;99.90
52615;DHT22;38508;53.158;6.614;2023-02-15T15:58:34;12.30;99.90
52615;DHT22;38508;53.158;6.614;2023-02-15T16:01:10;12.20;99.90
52615;DHT22;38508;53.158;6.614;2023-02-15T16:03:41;12.40;99.90
52615;DHT22;38508;53.158;6.614;2023-02-15T16:06:31;12.40;99.90
52615;DHT22;38508;53.158;6.614;2023-02-15T16:09:08;12.40;99.90
52615;DHT22;38508;53.158;6.614;2023-02-15T16:11:34;12.30;99.90
52615;DHT22;38508;53.158;6.614;2023-02-15T16:14:00;12.30;99.90
52615;DHT22;38508;53.158;6.614;2023-02-15T16:16:27;12.20;99.90
52615;DHT22;38508;53.158;6.614;2023-02-15T16:18:55;12.20;99.90
52615;DHT22;38508;53.158;6.614;2023-02-15T16:21:32;12.10;99.90
52615;DHT22;38508;53.158;6.614;2023-02-15T16:29:19;11.80;99.90
52615;DHT22;38508;53.158;6.614;2023-02-15T16:32:05;11.70;99.90
52615;DHT22;38508;53.158;6.614;2023-02-15T16:34:32;11.60;99.90
52615;DHT22;38508;53.158;6.614;2023-02-15T16:37:20;11.50;99.90
52615;DHT22;38508;53.158;6.614;2023-02-15T16:39:51;11.30;99.90
52615;DHT22;38508;53.158;6.614;2023-02-15T16:42:18;11.20;99.90
52615;DHT22;38508;53.158;6.614;2023-02-15T16:44:46;11.10;99.90
52615;DHT22;38508;53.158;6.614;2023-02-15T16:47:28;11.00;99.90
52615;DHT22;38508;53.158;6.614;2023-02-15T16:49:58;11.00;99.90
52615;DHT22;38508;53.158;6.614;2023-02-15T16:52:26;11.00;99.90
52615;DHT22;38508;53.158;6.614;2023-02-15T16:55:03;10.90;99.90
52615;DHT22;38508;53.158;6.614;2023-02-15T16:57:35;10.80;99.90
52615;DHT22;38508;53.158;6.614;2023-02-15T17:00:18;10.80;99.90
52615;DHT22;38508;53.158;6.614;2023-02-15T17:05:44;10.70;99.90
52615;DHT22;38508;53.158;6.614;2023-02-15T17:13:29;10.60;99.90
52615;DHT22;38508;53.158;6.614;2023-02-15T17:18:24;10.40;99.90
52615;DHT22;38508;53.158;6.614;2023-02-15T17:20:53;10.20;99.90
52615;DHT22;38508;53.158;6.614;2023-02-15T17:25:59;10.10;99.90
52615;DHT22;38508;53.158;6.614;2023-02-15T17:28:28;10.10;99.90
52615;DHT22;38508;53.158;6.614;2023-02-15T17:30:55;10.10;99.90
52615;DHT22;38508;53.158;6.614;2023-02-15T17:36:04;10.20;99.90
52615;DHT22;38508;53.158;6.614;2023-02-15T17:38:31;10.20;99.90
52615;DHT22;38508;53.158;6.614;2023-02-15T17:40:57;10.20;99.90
52615;DHT22;38508;53.158;6.614;2023-02-15T17:43:24;10.20;99.90
52615;DHT22;38508;53.158;6.614;2023-02-15T17:45:51;10.10;99.90
52615;DHT22;38508;53.158;6.614;2023-02-15T17:48:21;10.10;99.90
52615;DHT22;38508;53.158;6.614;2023-02-15T17:50:47;10.10;99.90
52615;DHT22;38508;53.158;6.614;2023-02-15T17:53:16;10.00;99.90
52615;DHT22;38508;53.158;6.614;2023-02-15T17:55:42;10.00;99.90
52615;DHT22;38508;53.158;6.614;2023-02-15T17:58:16;9.90;99.90
52615;DHT22;38508;53.158;6.614;2023-02-15T18:00:46;9.90;99.90
52615;DHT22;38508;53.158;6.614;2023-02-15T18:03:39;9.90;99.90
52615;DHT22;38508;53.158;6.614;2023-02-15T18:06:24;9.80;99.90
52615;DHT22;38508;53.158;6.614;2023-02-15T18:09:11;9.80;99.90
52615;DHT22;38508;53.158;6.614;2023-02-15T18:11:56;9.90;99.90
52615;DHT22;38508;53.158;6.614;2023-02-15T18:14:21;9.90;99.90
52615;DHT22;38508;53.158;6.614;2023-02-15T18:16:47;9.90;99.90
52615;DHT22;38508;53.158;6.614;2023-02-15T18:19:19;10.00;99.90
52615;DHT22;38508;53.158;6.614;2023-02-15T18:21:45;10.00;99.90
52615;DHT22;38508;53.158;6.614;2023-02-15T18:24:23;10.10;99.90
52615;DHT22;38508;53.158;6.614;2023-02-15T18:26:50;10.00;99.90
52615;DHT22;38508;53.158;6.614;2023-02-15T18:29:16;10.00;99.90
52615;DHT22;38508;53.158;6.614;2023-02-15T18:31:43;10.00;99.90
52615;DHT22;38508;53.158;6.614;2023-02-15T18:34:24;10.00;99.90
52615;DHT22;38508;53.158;6.614;2023-02-15T18:36:52;10.00;99.90
52615;DHT22;38508;53.158;6.614;2023-02-15T18:39:33;9.90;99.90
52615;DHT22;38508;53.158;6.614;2023-02-15T18:42:00;10.00;99.90
52615;DHT22;38508;53.158;6.614;2023-02-15T18:44:26;9.90;99.90
52615;DHT22;38508;53.158;6.614;2023-02-15T18:46:51;10.00;99.90
52615;DHT22;38508;53.158;6.614;2023-02-15T18:49:17;9.90;99.90
52615;DHT22;38508;53.158;6.614;2023-02-15T18:51:43;9.90;99.90
52615;DHT22;38508;53.158;6.614;2023-02-15T18:54:22;9.90;99.90
52615;DHT22;38508;53.158;6.614;2023-02-15T18:56:57;9.80;99.90
52615;DHT22;38508;53.158;6.614;2023-02-15T18:59:25;9.70;99.90
52615;DHT22;38508;53.158;6.614;2023-02-15T19:01:52;9.70;99.90
52615;DHT22;38508;53.158;6.614;2023-02-15T19:04:18;9.70;99.90
52615;DHT22;38508;53.158;6.614;2023-02-15T19:06:46;9.60;99.90
52615;DHT22;38508;53.158;6.614;2023-02-15T19:09:15;9.70;99.90
52615;DHT22;38508;53.158;6.614;2023-02-15T19:11:44;9.70;99.90
52615;DHT22;38508;53.158;6.614;2023-02-15T19:16:51;9.70;99.90
52615;DHT22;38508;53.158;6.614;2023-02-15T19:19:16;9.70;99.90
52615;DHT22;38508;53.158;6.614;2023-02-15T19:21:42;9.70;99.90
52615;DHT22;38508;53.158;6.614;2023-02-15T19:24:15;9.50;99.90
52615;DHT22;38508;53.158;6.614;2023-02-15T19:26:42;9.40;99.90
52615;DHT22;38508;53.158;6.614;2023-02-15T19:29:12;9.40;99.90
52615;DHT22;38508;53.158;6.614;2023-02-15T19:31:39;9.40;99.90
52615;DHT22;38508;53.158;6.614;2023-02-15T19:34:17;9.50;99.90
52615;DHT22;38508;53.158;6.614;2023-02-15T19:36:46;9.50;99.90
52615;DHT22;38508;53.158;6.614;2023-02-15T19:39:28;9.50;99.90